createdAt,value
2018-06-28T00:00:07.267Z,14.47
2018-06-28T00:01:07.362Z,14.43
2018-06-28T00:02:07.459Z,14.34
2018-06-28T00:03:07.556Z,14.34
2018-06-28T00:04:07.649Z,14.32
2018-06-28T00:05:07.743Z,14.35
2018-06-28T00:06:07.842Z,14.38
2018-06-28T00:07:07.936Z,14.43
2018-06-28T00:08:08.032Z,14.34
2018-06-28T00:09:08.132Z,14.47
2018-06-28T00:10:08.227Z,14.39
2018-06-28T00:11:08.325Z,14.43
2018-06-28T00:12:08.419Z,14.47
2018-06-28T00:13:08.515Z,14.53
2018-06-28T00:14:08.611Z,14.42
2018-06-28T00:15:08.710Z,14.49
2018-06-28T00:16:08.806Z,14.38
2018-06-28T00:17:08.903Z,14.43
2018-06-28T00:18:09.000Z,14.29
2018-06-28T00:19:09.096Z,14.28
2018-06-28T00:20:09.191Z,14.16
2018-06-28T00:21:09.290Z,14.14
2018-06-28T00:22:09.384Z,14.19
2018-06-28T00:23:09.482Z,14.20
2018-06-28T00:24:09.579Z,14.29
2018-06-28T00:25:09.678Z,14.29
2018-06-28T00:26:09.775Z,14.28
2018-06-28T00:27:09.875Z,14.27
2018-06-28T00:28:09.970Z,14.32
2018-06-28T00:29:10.067Z,14.35
2018-06-28T00:30:10.166Z,14.46
2018-06-28T00:31:10.267Z,14.47
2018-06-28T00:32:10.361Z,14.52
2018-06-28T00:33:10.457Z,14.53
2018-06-28T00:34:10.547Z,14.62
2018-06-28T00:35:10.653Z,14.61
2018-06-28T00:36:10.746Z,14.74
2018-06-28T00:37:10.838Z,14.71
2018-06-28T00:38:10.936Z,14.80
2018-06-28T00:39:11.034Z,14.74
2018-06-28T00:40:11.136Z,14.74
2018-06-28T00:41:11.235Z,14.78
2018-06-28T00:42:11.333Z,14.87
2018-06-28T00:43:11.428Z,14.78
2018-06-28T00:44:11.529Z,14.86
2018-06-28T00:45:11.626Z,14.72
2018-06-28T00:46:11.720Z,14.62
2018-06-28T00:47:11.814Z,14.64
2018-06-28T00:48:11.913Z,14.56
2018-06-28T00:49:12.015Z,14.49
2018-06-28T00:50:12.104Z,14.60
2018-06-28T00:51:12.197Z,14.61
2018-06-28T00:52:12.296Z,14.62
2018-06-28T00:53:12.389Z,14.67
2018-06-28T00:54:12.478Z,14.60
2018-06-28T00:55:12.572Z,14.64
2018-06-28T00:56:12.669Z,14.62
2018-06-28T00:57:12.766Z,14.68
2018-06-28T00:58:12.860Z,14.62
2018-06-28T00:59:12.957Z,14.80
2018-06-28T01:00:13.066Z,14.71
2018-06-28T01:01:13.163Z,14.74
2018-06-28T01:02:13.260Z,14.71
2018-06-28T01:03:13.356Z,14.74
2018-06-28T01:04:13.458Z,14.78
2018-06-28T01:05:13.555Z,14.72
2018-06-28T01:06:13.653Z,14.74
2018-06-28T01:07:13.752Z,14.65
2018-06-28T01:08:13.847Z,14.81
2018-06-28T01:09:13.947Z,14.78
2018-06-28T01:10:14.043Z,14.67
2018-06-28T01:11:14.145Z,14.62
2018-06-28T01:12:14.237Z,14.69
2018-06-28T01:13:14.335Z,14.69
2018-06-28T01:14:14.436Z,14.65
2018-06-28T01:15:14.532Z,14.61
2018-06-28T01:16:14.625Z,14.56
2018-06-28T01:17:14.720Z,14.61
2018-06-28T01:18:14.819Z,14.57
2018-06-28T01:19:14.916Z,14.62
2018-06-28T01:20:15.006Z,14.56
2018-06-28T01:21:15.105Z,14.62
2018-06-28T01:22:15.201Z,14.53
2018-06-28T01:23:15.301Z,14.54
2018-06-28T01:24:15.396Z,14.49
2018-06-28T01:25:15.495Z,14.49
2018-06-28T01:26:15.590Z,14.44
2018-06-28T01:27:15.687Z,14.49
2018-06-28T01:28:15.782Z,14.53
2018-06-28T01:29:15.879Z,14.46
2018-06-28T01:30:15.977Z,14.47
2018-06-28T01:31:16.071Z,14.47
2018-06-28T01:32:16.164Z,14.46
2018-06-28T01:33:16.262Z,14.39
2018-06-28T01:34:16.356Z,14.37
2018-06-28T01:35:16.454Z,14.49
2018-06-28T01:36:16.547Z,14.39
2018-06-28T01:37:16.643Z,14.38
2018-06-28T01:38:16.740Z,14.43
2018-06-28T01:39:16.840Z,14.38
2018-06-28T01:40:16.934Z,14.39
2018-06-28T01:41:17.034Z,14.53
2018-06-28T01:42:17.130Z,14.39
2018-06-28T01:43:17.224Z,14.39
2018-06-28T01:44:17.321Z,14.35
2018-06-28T01:45:17.417Z,14.37
2018-06-28T01:46:17.512Z,14.46
2018-06-28T01:47:17.609Z,14.37
2018-06-28T01:48:17.705Z,14.35
2018-06-28T01:49:17.803Z,14.42
2018-06-28T01:50:17.904Z,14.43
2018-06-28T01:51:17.994Z,14.42
2018-06-28T01:52:18.093Z,14.42
2018-06-28T01:53:18.189Z,14.44
2018-06-28T01:54:18.282Z,14.34
2018-06-28T01:55:18.371Z,14.32
2018-06-28T01:56:18.493Z,14.34
2018-06-28T01:57:18.598Z,14.28
2018-06-28T01:58:18.687Z,14.28
2018-06-28T01:59:18.769Z,14.32
2018-06-28T02:00:18.863Z,14.25
2018-06-28T02:01:18.964Z,14.28
2018-06-28T02:02:19.056Z,14.28
2018-06-28T02:03:19.156Z,14.32
2018-06-28T02:04:19.267Z,14.25
2018-06-28T02:05:19.347Z,14.16
2018-06-28T02:06:19.427Z,14.27
2018-06-28T02:07:19.518Z,14.19
2018-06-28T02:08:19.637Z,14.21
2018-06-28T02:09:19.728Z,14.25
2018-06-28T02:10:19.826Z,14.19
2018-06-28T02:11:19.934Z,14.16
2018-06-28T02:12:20.018Z,14.10
2018-06-28T02:13:20.112Z,14.17
2018-06-28T02:14:20.209Z,14.16
2018-06-28T02:15:20.317Z,14.12
2018-06-28T02:16:20.418Z,14.14
2018-06-28T02:17:20.513Z,14.19
2018-06-28T02:18:20.626Z,14.04
2018-06-28T02:19:20.720Z,14.10
2018-06-28T02:20:20.811Z,14.07
2018-06-28T02:21:20.903Z,13.96
2018-06-28T02:22:20.999Z,14.07
2018-06-28T02:23:21.095Z,14.07
2018-06-28T02:24:21.187Z,14.04
2018-06-28T02:25:21.285Z,14.10
2018-06-28T02:26:21.377Z,14.09
2018-06-28T02:27:21.464Z,14.10
2018-06-28T02:28:21.563Z,14.09
2018-06-28T02:29:21.652Z,14.02
2018-06-28T02:30:21.750Z,14.07
2018-06-28T02:31:21.848Z,14.04
2018-06-28T02:32:21.947Z,14.02
2018-06-28T02:33:22.055Z,14.06
2018-06-28T02:34:22.129Z,13.95
2018-06-28T02:35:22.241Z,14.02
2018-06-28T02:36:22.345Z,14.01
2018-06-28T02:37:22.436Z,13.91
2018-06-28T02:38:22.524Z,13.88
2018-06-28T02:39:22.630Z,13.95
2018-06-28T02:40:22.729Z,13.91
2018-06-28T02:41:22.826Z,13.89
2018-06-28T02:42:22.912Z,13.67
2018-06-28T02:43:23.009Z,13.70
2018-06-28T02:44:23.108Z,13.76
2018-06-28T02:45:23.206Z,13.70
2018-06-28T02:46:23.303Z,13.76
2018-06-28T02:47:23.386Z,13.69
2018-06-28T02:48:23.484Z,13.76
2018-06-28T02:49:23.590Z,13.79
2018-06-28T02:50:23.688Z,13.81
2018-06-28T02:51:23.784Z,13.70
2018-06-28T02:52:23.879Z,13.69
2018-06-28T02:53:23.976Z,13.70
2018-06-28T02:54:24.074Z,13.70
2018-06-28T02:55:24.166Z,13.67
2018-06-28T02:56:24.262Z,13.71
2018-06-28T02:57:24.366Z,13.70
2018-06-28T02:58:24.466Z,13.71
2018-06-28T02:59:24.562Z,13.55
2018-06-28T03:00:24.672Z,13.62
2018-06-28T03:01:24.795Z,13.58
2018-06-28T03:02:24.887Z,13.59
2018-06-28T03:03:24.979Z,13.58
2018-06-28T03:04:25.073Z,13.59
2018-06-28T03:05:25.178Z,13.61
2018-06-28T03:06:25.272Z,13.70
2018-06-28T03:07:25.389Z,13.70
2018-06-28T03:08:25.482Z,13.69
2018-06-28T03:09:25.605Z,13.73
2018-06-28T03:10:25.673Z,13.70
2018-06-28T03:11:25.768Z,13.76
2018-06-28T03:12:25.861Z,13.69
2018-06-28T03:13:25.961Z,13.63
2018-06-28T03:14:26.056Z,13.59
2018-06-28T03:15:26.155Z,13.63
2018-06-28T03:16:26.260Z,13.63
2018-06-28T03:17:26.355Z,13.56
2018-06-28T03:18:26.448Z,13.61
2018-06-28T03:19:26.551Z,13.58
2018-06-28T03:20:26.657Z,13.52
2018-06-28T03:21:26.743Z,13.52
2018-06-28T03:22:26.849Z,13.58
2018-06-28T03:23:26.941Z,13.59
2018-06-28T03:24:27.039Z,13.52
2018-06-28T03:25:27.133Z,13.63
2018-06-28T03:26:27.231Z,13.56
2018-06-28T03:27:27.323Z,13.58
2018-06-28T03:28:27.418Z,13.73
2018-06-28T03:29:27.512Z,13.67
2018-06-28T03:30:27.610Z,13.58
2018-06-28T03:31:27.696Z,13.62
2018-06-28T03:32:27.798Z,13.74
2018-06-28T03:33:27.900Z,13.62
2018-06-28T03:34:27.998Z,13.58
2018-06-28T03:35:28.097Z,13.59
2018-06-28T03:36:28.188Z,13.65
2018-06-28T03:37:28.281Z,13.67
2018-06-28T03:38:28.380Z,13.67
2018-06-28T03:39:28.471Z,13.65
2018-06-28T03:40:28.573Z,13.69
2018-06-28T03:41:28.667Z,13.70
2018-06-28T03:42:28.756Z,13.73
2018-06-28T03:43:28.862Z,13.73
2018-06-28T03:44:28.953Z,13.71
2018-06-28T03:45:29.042Z,13.76
2018-06-28T03:46:29.134Z,13.77
2018-06-28T03:47:29.232Z,13.71
2018-06-28T03:48:29.329Z,13.79
2018-06-28T03:49:29.423Z,13.83
2018-06-28T03:50:29.520Z,13.83
2018-06-28T03:51:29.615Z,13.89
2018-06-28T03:52:29.712Z,13.79
2018-06-28T03:53:29.811Z,13.83
2018-06-28T03:54:29.907Z,13.70
2018-06-28T03:55:30.008Z,13.70
2018-06-28T03:56:30.105Z,13.71
2018-06-28T03:57:30.267Z,13.70
2018-06-28T03:58:30.301Z,13.80
2018-06-28T03:59:30.397Z,13.83
2018-06-28T04:00:30.494Z,13.81
2018-06-28T04:01:30.589Z,13.80
2018-06-28T04:02:30.687Z,13.76
2018-06-28T04:03:30.782Z,13.87
2018-06-28T04:04:30.879Z,13.91
2018-06-28T04:05:30.977Z,13.88
2018-06-28T04:06:31.093Z,13.89
2018-06-28T04:07:31.171Z,13.84
2018-06-28T04:08:31.265Z,13.88
2018-06-28T04:09:31.362Z,13.92
2018-06-28T04:10:31.457Z,13.96
2018-06-28T04:11:31.556Z,13.99
2018-06-28T04:12:31.654Z,13.95
2018-06-28T04:13:31.750Z,13.99
2018-06-28T04:14:31.847Z,14.04
2018-06-28T04:15:31.944Z,14.02
2018-06-28T04:16:32.040Z,14.09
2018-06-28T04:17:32.135Z,14.14
2018-06-28T04:18:32.233Z,14.06
2018-06-28T04:19:32.328Z,14.06
2018-06-28T04:20:32.429Z,14.17
2018-06-28T04:21:32.524Z,14.09
2018-06-28T04:22:32.621Z,14.09
2018-06-28T04:23:32.717Z,14.14
2018-06-28T04:24:32.815Z,14.14
2018-06-28T04:25:32.914Z,14.10
2018-06-28T04:26:33.011Z,14.17
2018-06-28T04:27:33.196Z,14.13
2018-06-28T04:28:33.206Z,14.19
2018-06-28T04:29:33.306Z,14.24
2018-06-28T04:30:33.397Z,14.27
2018-06-28T04:31:33.503Z,14.19
2018-06-28T04:32:33.603Z,14.27
2018-06-28T04:33:33.700Z,14.31
2018-06-28T04:34:33.797Z,14.16
2018-06-28T04:35:33.895Z,14.16
2018-06-28T04:36:33.991Z,14.13
2018-06-28T04:37:34.086Z,14.19
2018-06-28T04:38:34.186Z,14.27
2018-06-28T04:39:34.284Z,14.28
2018-06-28T04:40:34.402Z,14.25
2018-06-28T04:41:34.474Z,14.29
2018-06-28T04:42:34.570Z,14.24
2018-06-28T04:43:34.686Z,14.28
2018-06-28T04:44:34.782Z,14.28
2018-06-28T04:45:34.877Z,14.37
2018-06-28T04:46:34.974Z,14.28
2018-06-28T04:47:35.073Z,14.47
2018-06-28T04:48:35.173Z,14.32
2018-06-28T04:49:35.268Z,14.50
2018-06-28T04:50:35.365Z,14.44
2018-06-28T04:51:35.467Z,14.54
2018-06-28T04:52:35.563Z,14.53
2018-06-28T04:53:35.661Z,14.61
2018-06-28T04:54:35.759Z,14.78
2018-06-28T04:55:35.859Z,14.74
2018-06-28T04:56:35.953Z,14.84
2018-06-28T04:57:36.055Z,14.80
2018-06-28T04:58:36.150Z,14.71
2018-06-28T04:59:36.257Z,14.80
2018-06-28T05:00:36.341Z,14.87
2018-06-28T05:01:36.439Z,14.94
2018-06-28T05:02:36.538Z,14.78
2018-06-28T05:03:36.636Z,14.81
2018-06-28T05:04:36.728Z,14.87
2018-06-28T05:05:36.822Z,14.93
2018-06-28T05:06:36.920Z,14.94
2018-06-28T05:07:37.022Z,14.91
2018-06-28T05:08:37.116Z,14.91
2018-06-28T05:09:37.214Z,14.91
2018-06-28T05:10:37.325Z,14.88
2018-06-28T05:11:37.424Z,15.17
2018-06-28T05:12:37.523Z,15.09
2018-06-28T05:13:37.621Z,15.13
2018-06-28T05:14:37.716Z,15.27
2018-06-28T05:15:37.820Z,15.27
2018-06-28T05:16:37.914Z,15.20
2018-06-28T05:17:38.011Z,15.39
2018-06-28T05:18:38.110Z,15.43
2018-06-28T05:19:38.210Z,15.48
2018-06-28T05:20:38.310Z,15.57
2018-06-28T05:21:38.405Z,15.54
2018-06-28T05:22:38.502Z,15.70
2018-06-28T05:23:38.598Z,15.64
2018-06-28T05:24:38.688Z,15.96
2018-06-28T05:25:38.802Z,16.53
2018-06-28T05:26:38.898Z,17.14
2018-06-28T05:27:38.995Z,17.73
2018-06-28T05:28:39.094Z,18.49
2018-06-28T05:29:39.193Z,19.05
2018-06-28T05:30:39.293Z,19.39
2018-06-28T05:31:39.387Z,19.68
2018-06-28T05:32:39.485Z,20.12
2018-06-28T05:33:39.583Z,20.68
2018-06-28T05:34:39.741Z,21.17
2018-06-28T05:35:39.786Z,21.59
2018-06-28T05:36:39.888Z,21.92
2018-06-28T05:37:39.989Z,22.44
2018-06-28T05:38:40.093Z,22.68
2018-06-28T05:39:40.194Z,22.87
2018-06-28T05:40:40.296Z,23.31
2018-06-28T05:41:40.399Z,23.75
2018-06-28T05:42:40.500Z,23.97
2018-06-28T05:43:40.603Z,24.16
2018-06-28T05:44:40.706Z,24.39
2018-06-28T05:45:40.810Z,24.80
2018-06-28T05:46:40.914Z,24.98
2018-06-28T05:47:41.017Z,25.34
2018-06-28T05:48:41.120Z,25.46
2018-06-28T05:49:41.229Z,25.59
2018-06-28T05:50:41.337Z,25.80
2018-06-28T05:51:41.440Z,25.99
2018-06-28T05:52:41.545Z,26.09
2018-06-28T05:53:41.656Z,26.18
2018-06-28T05:54:41.758Z,26.42
2018-06-28T05:55:41.867Z,26.65
2018-06-28T05:56:41.978Z,26.86
2018-06-28T05:57:42.086Z,26.98
2018-06-28T05:58:42.192Z,27.01
2018-06-28T05:59:42.306Z,27.02
2018-06-28T06:00:42.418Z,27.20
2018-06-28T06:01:42.523Z,27.23
2018-06-28T06:02:42.633Z,27.29
2018-06-28T06:03:42.742Z,27.39
2018-06-28T06:04:42.846Z,27.38
2018-06-28T06:05:42.960Z,27.43
2018-06-28T06:06:43.071Z,27.53
2018-06-28T06:07:43.177Z,27.64
2018-06-28T06:08:43.286Z,27.66
2018-06-28T06:09:43.397Z,27.24
2018-06-28T06:10:43.507Z,27.24
2018-06-28T06:11:43.617Z,27.39
2018-06-28T06:12:43.725Z,27.32
2018-06-28T06:13:43.839Z,27.24
2018-06-28T06:14:43.976Z,27.26
2018-06-28T06:15:44.052Z,27.21
2018-06-28T06:16:44.160Z,27.14
2018-06-28T06:17:44.271Z,27.24
2018-06-28T06:18:44.380Z,27.16
2018-06-28T06:19:44.492Z,27.02
2018-06-28T06:20:44.599Z,26.99
2018-06-28T06:21:44.714Z,26.86
2018-06-28T06:22:44.819Z,26.86
2018-06-28T06:23:44.929Z,26.76
2018-06-28T06:24:45.040Z,26.77
2018-06-28T06:25:45.149Z,26.77
2018-06-28T06:26:45.258Z,26.43
2018-06-28T06:27:45.367Z,26.22
2018-06-28T06:28:45.475Z,26.06
2018-06-28T06:29:45.584Z,25.86
2018-06-28T06:30:45.690Z,25.72
2018-06-28T06:31:45.804Z,25.53
2018-06-28T06:32:45.911Z,25.24
2018-06-28T06:33:46.030Z,25.28
2018-06-28T06:34:46.136Z,25.22
2018-06-28T06:35:46.246Z,25.15
2018-06-28T06:36:46.357Z,25.17
2018-06-28T06:37:46.468Z,24.95
2018-06-28T06:38:46.574Z,24.94
2018-06-28T06:39:46.680Z,24.83
2018-06-28T06:40:46.788Z,24.75
2018-06-28T06:41:46.894Z,24.63
2018-06-28T06:42:47.003Z,24.56
2018-06-28T06:43:47.109Z,24.39
2018-06-28T06:44:47.215Z,24.34
2018-06-28T06:45:47.316Z,24.19
2018-06-28T06:46:47.416Z,23.98
2018-06-28T06:47:47.523Z,23.89
2018-06-28T06:48:47.639Z,23.85
2018-06-28T06:49:47.735Z,23.85
2018-06-28T06:50:47.841Z,23.79
2018-06-28T06:51:47.947Z,23.39
2018-06-28T06:52:48.053Z,23.24
2018-06-28T06:53:48.224Z,23.43
2018-06-28T06:54:48.261Z,23.43
2018-06-28T06:55:48.370Z,23.47
2018-06-28T06:56:48.472Z,23.45
2018-06-28T06:57:48.577Z,23.47
2018-06-28T06:58:48.685Z,22.77
2018-06-28T06:59:48.827Z,22.64
2018-06-28T07:00:48.930Z,22.80
2018-06-28T07:01:49.023Z,22.71
2018-06-28T07:02:49.122Z,22.56
2018-06-28T07:03:49.222Z,22.59
2018-06-28T07:04:49.339Z,22.72
2018-06-28T07:05:49.514Z,22.64
2018-06-28T07:06:49.650Z,22.75
2018-06-28T07:07:49.635Z,22.90
2018-06-28T07:08:49.723Z,22.68
2018-06-28T07:09:49.824Z,22.83
2018-06-28T07:10:49.929Z,22.99
2018-06-28T07:11:50.023Z,22.89
2018-06-28T07:12:50.136Z,23.02
2018-06-28T07:13:50.254Z,23.08
2018-06-28T07:14:50.352Z,23.01
2018-06-28T07:15:50.502Z,22.82
2018-06-28T07:16:50.577Z,22.92
2018-06-28T07:17:50.683Z,22.96
2018-06-28T07:18:50.769Z,23.17
2018-06-28T07:19:50.859Z,22.80
2018-06-28T07:20:51.022Z,22.89
2018-06-28T07:21:51.060Z,22.71
2018-06-28T07:22:51.248Z,22.89
2018-06-28T07:23:51.306Z,22.71
2018-06-28T07:24:51.412Z,22.53
2018-06-28T07:25:51.510Z,22.56
2018-06-28T07:26:51.636Z,22.71
2018-06-28T07:27:51.741Z,22.84
2018-06-28T07:28:51.852Z,22.89
2018-06-28T07:29:51.958Z,23.05
2018-06-28T07:30:52.058Z,23.14
2018-06-28T07:31:52.173Z,23.08
2018-06-28T07:32:52.277Z,23.20
2018-06-28T07:33:52.441Z,23.34
2018-06-28T07:34:52.441Z,23.46
2018-06-28T07:35:52.579Z,23.67
2018-06-28T07:36:52.686Z,23.68
2018-06-28T07:37:52.797Z,23.65
2018-06-28T07:38:52.915Z,23.62
2018-06-28T07:39:53.034Z,23.75
2018-06-28T07:40:53.179Z,23.90
2018-06-28T07:41:53.350Z,23.98
2018-06-28T07:42:53.350Z,24.02
2018-06-28T07:43:53.422Z,24.05
2018-06-28T07:44:54.081Z,23.67
2018-06-28T07:45:53.752Z,23.83
2018-06-28T07:46:53.861Z,23.77
2018-06-28T07:47:53.842Z,23.98
2018-06-28T07:48:53.975Z,23.85
2018-06-28T07:49:54.072Z,23.77
2018-06-28T07:50:54.171Z,23.86
2018-06-28T07:51:54.279Z,23.95
2018-06-28T07:52:54.379Z,24.14
2018-06-28T07:53:54.494Z,23.87
2018-06-28T07:54:54.585Z,23.94
2018-06-28T07:55:54.694Z,24.00
2018-06-28T07:56:54.793Z,24.07
2018-06-28T07:57:54.918Z,24.10
2018-06-28T07:58:55.018Z,24.22
2018-06-28T07:59:55.115Z,24.20
2018-06-28T08:00:55.211Z,24.32
2018-06-28T08:01:55.329Z,24.10
2018-06-28T08:02:55.450Z,24.05
2018-06-28T08:03:55.567Z,24.17
2018-06-28T08:04:55.673Z,24.34
2018-06-28T08:05:55.775Z,24.29
2018-06-28T08:06:55.881Z,24.32
2018-06-28T08:07:55.969Z,24.52
2018-06-28T08:08:56.081Z,24.27
2018-06-28T08:09:56.185Z,24.47
2018-06-28T08:10:56.285Z,24.13
2018-06-28T08:11:56.429Z,24.19
2018-06-28T08:12:56.561Z,24.22
2018-06-28T08:13:56.665Z,24.35
2018-06-28T08:14:56.766Z,24.38
2018-06-28T08:15:56.867Z,24.41
2018-06-28T08:16:56.968Z,24.68
2018-06-28T08:17:57.074Z,24.56
2018-06-28T08:18:57.178Z,24.64
2018-06-28T08:19:57.289Z,24.60
2018-06-28T08:20:57.392Z,24.80
2018-06-28T08:21:57.500Z,24.82
2018-06-28T08:22:57.611Z,24.82
2018-06-28T08:23:57.736Z,25.00
2018-06-28T08:24:57.827Z,24.88
2018-06-28T08:25:57.940Z,24.39
2018-06-28T08:26:58.092Z,24.31
2018-06-28T08:27:58.135Z,24.38
2018-06-28T08:28:58.248Z,24.53
2018-06-28T08:29:58.365Z,24.17
2018-06-28T08:30:58.461Z,24.22
2018-06-28T08:31:58.568Z,24.04
2018-06-28T08:32:58.674Z,23.87
2018-06-28T08:33:58.772Z,23.90
2018-06-28T08:34:58.886Z,24.13
2018-06-28T08:35:59.041Z,24.22
2018-06-28T08:36:59.091Z,24.32
2018-06-28T08:37:59.201Z,24.38
2018-06-28T08:38:59.309Z,24.47
2018-06-28T08:39:59.412Z,24.38
2018-06-28T08:40:59.516Z,24.42
2018-06-28T08:41:59.617Z,24.39
2018-06-28T08:42:59.721Z,24.42
2018-06-28T08:43:59.825Z,24.45
2018-06-28T08:44:59.925Z,24.49
2018-06-28T08:46:00.030Z,24.45
2018-06-28T08:47:00.133Z,24.41
2018-06-28T08:48:00.247Z,24.45
2018-06-28T08:49:00.410Z,24.50
2018-06-28T08:50:00.473Z,24.64
2018-06-28T08:51:00.575Z,24.69
2018-06-28T08:52:00.679Z,24.80
2018-06-28T08:53:00.790Z,24.80
2018-06-28T08:54:00.903Z,24.88
2018-06-28T08:55:01.009Z,25.05
2018-06-28T08:56:01.146Z,25.06
2018-06-28T08:57:01.237Z,25.15
2018-06-28T08:58:01.419Z,25.27
2018-06-28T08:59:01.444Z,25.32
2018-06-28T09:00:01.553Z,25.49
2018-06-28T09:01:01.653Z,25.65
2018-06-28T09:02:01.770Z,25.39
2018-06-28T09:03:01.873Z,25.56
2018-06-28T09:04:01.978Z,25.72
2018-06-28T09:05:02.083Z,25.90
2018-06-28T09:06:02.184Z,25.84
2018-06-28T09:07:02.294Z,26.01
2018-06-28T09:08:02.392Z,26.02
2018-06-28T09:09:02.508Z,26.32
2018-06-28T09:10:02.608Z,26.29
2018-06-28T09:11:02.708Z,26.46
2018-06-28T09:12:02.813Z,26.72
2018-06-28T09:13:02.920Z,26.76
2018-06-28T09:14:03.041Z,26.95
2018-06-28T09:15:03.141Z,27.01
2018-06-28T09:16:03.243Z,27.11
2018-06-28T09:17:03.345Z,27.16
2018-06-28T09:18:03.449Z,27.19
2018-06-28T09:19:03.565Z,26.89
2018-06-28T09:20:03.668Z,27.09
2018-06-28T09:21:03.773Z,27.11
2018-06-28T09:22:03.878Z,27.13
2018-06-28T09:23:04.058Z,27.09
2018-06-28T09:24:04.089Z,27.13
2018-06-28T09:25:04.203Z,27.20
2018-06-28T09:26:04.311Z,27.24
2018-06-28T09:27:04.404Z,27.16
2018-06-28T09:28:04.508Z,27.04
2018-06-28T09:29:04.621Z,26.37
2018-06-28T09:30:04.727Z,26.31
2018-06-28T09:31:04.837Z,26.65
2018-06-28T09:32:04.948Z,26.99
2018-06-28T09:33:05.053Z,26.87
2018-06-28T09:34:05.178Z,27.14
2018-06-28T09:35:05.285Z,27.31
2018-06-28T09:36:05.397Z,27.42
2018-06-28T09:37:05.503Z,27.39
2018-06-28T09:38:05.606Z,27.57
2018-06-28T09:39:05.714Z,27.58
2018-06-28T09:40:05.820Z,27.71
2018-06-28T09:41:05.929Z,27.88
2018-06-28T09:42:06.040Z,28.10
2018-06-28T09:43:06.147Z,27.88
2018-06-28T09:44:06.257Z,27.73
2018-06-28T09:45:06.365Z,27.96
2018-06-28T09:46:06.475Z,28.07
2018-06-28T09:47:06.585Z,27.80
2018-06-28T09:48:06.694Z,27.92
2018-06-28T09:49:06.805Z,28.01
2018-06-28T09:50:06.913Z,28.21
2018-06-28T09:51:07.022Z,28.17
2018-06-28T09:52:07.126Z,28.19
2018-06-28T09:53:07.238Z,28.21
2018-06-28T09:54:07.339Z,28.36
2018-06-28T09:55:07.446Z,27.86
2018-06-28T09:56:07.552Z,27.73
2018-06-28T09:57:07.663Z,27.28
2018-06-28T09:58:07.766Z,27.29
2018-06-28T09:59:07.876Z,27.09
2018-06-28T10:00:07.982Z,27.20
2018-06-28T10:01:08.087Z,27.48
2018-06-28T10:02:08.196Z,27.59
2018-06-28T10:03:08.302Z,27.43
2018-06-28T10:04:08.425Z,27.53
2018-06-28T10:05:08.530Z,27.79
2018-06-28T10:06:08.638Z,28.03
2018-06-28T10:07:08.746Z,28.01
2018-06-28T10:08:08.852Z,27.61
2018-06-28T10:09:08.959Z,27.39
2018-06-28T10:10:09.069Z,27.48
2018-06-28T10:11:09.173Z,27.33
2018-06-28T10:12:09.273Z,27.16
2018-06-28T10:13:09.384Z,27.20
2018-06-28T10:14:09.489Z,27.39
2018-06-28T10:15:09.594Z,26.84
2018-06-28T10:16:09.703Z,26.96
2018-06-28T10:17:09.810Z,26.99
2018-06-28T10:18:09.983Z,27.02
2018-06-28T10:19:10.023Z,27.17
2018-06-28T10:20:10.129Z,27.14
2018-06-28T10:21:10.234Z,27.14
2018-06-28T10:22:10.342Z,27.06
2018-06-28T10:23:10.446Z,27.04
2018-06-28T10:24:10.550Z,27.23
2018-06-28T10:25:10.784Z,27.43
2018-06-28T10:26:10.762Z,27.39
2018-06-28T10:27:10.872Z,27.35
2018-06-28T10:28:10.974Z,27.26
2018-06-28T10:29:11.072Z,27.42
2018-06-28T10:30:11.204Z,27.05
2018-06-28T10:31:11.289Z,27.01
2018-06-28T10:32:11.397Z,27.06
2018-06-28T10:33:11.508Z,27.31
2018-06-28T10:34:11.611Z,27.09
2018-06-28T10:35:11.717Z,27.26
2018-06-28T10:36:11.826Z,27.42
2018-06-28T10:37:11.930Z,27.69
2018-06-28T10:38:12.036Z,27.70
2018-06-28T10:39:12.145Z,27.66
2018-06-28T10:40:12.251Z,27.80
2018-06-28T10:41:12.359Z,27.74
2018-06-28T10:42:12.466Z,27.79
2018-06-28T10:43:12.573Z,27.98
2018-06-28T10:44:12.671Z,28.17
2018-06-28T10:45:12.786Z,28.23
2018-06-28T10:46:12.890Z,28.28
2018-06-28T10:47:12.997Z,28.17
2018-06-28T10:48:13.106Z,28.28
2018-06-28T10:49:13.214Z,28.26
2018-06-28T10:50:13.320Z,28.29
2018-06-28T10:51:13.429Z,27.76
2018-06-28T10:52:13.537Z,27.94
2018-06-28T10:53:13.644Z,27.91
2018-06-28T10:54:13.748Z,27.82
2018-06-28T10:55:13.855Z,28.04
2018-06-28T10:56:13.964Z,28.28
2018-06-28T10:57:14.072Z,28.58
2018-06-28T10:58:14.178Z,28.73
2018-06-28T10:59:14.289Z,28.66
2018-06-28T11:00:14.394Z,28.53
2018-06-28T11:01:14.498Z,28.51
2018-06-28T11:02:14.620Z,28.63
2018-06-28T11:03:14.712Z,28.53
2018-06-28T11:04:14.828Z,27.96
2018-06-28T11:05:14.937Z,27.79
2018-06-28T11:06:15.045Z,27.66
2018-06-28T11:07:15.153Z,27.70
2018-06-28T11:08:15.298Z,27.85
2018-06-28T11:09:15.366Z,28.04
2018-06-28T11:10:15.471Z,28.17
2018-06-28T11:11:15.580Z,28.11
2018-06-28T11:12:15.773Z,28.13
2018-06-28T11:13:15.796Z,28.26
2018-06-28T11:14:15.900Z,28.46
2018-06-28T11:15:16.008Z,28.47
2018-06-28T11:16:16.114Z,28.36
2018-06-28T11:17:16.222Z,28.46
2018-06-28T11:18:16.328Z,28.01
2018-06-28T11:19:16.436Z,27.82
2018-06-28T11:20:16.547Z,27.74
2018-06-28T11:21:16.657Z,27.86
2018-06-28T11:22:16.765Z,28.01
2018-06-28T11:23:16.869Z,28.07
2018-06-28T11:24:16.978Z,28.06
2018-06-28T11:25:17.083Z,28.13
2018-06-28T11:26:17.194Z,28.26
2018-06-28T11:27:17.298Z,28.33
2018-06-28T11:28:17.404Z,28.35
2018-06-28T11:29:17.510Z,28.35
2018-06-28T11:30:17.618Z,28.25
2018-06-28T11:31:17.724Z,28.17
2018-06-28T11:32:17.828Z,27.99
2018-06-28T11:33:17.934Z,27.98
2018-06-28T11:34:18.041Z,28.09
2018-06-28T11:35:18.148Z,28.36
2018-06-28T11:36:18.298Z,28.48
2018-06-28T11:37:18.360Z,28.66
2018-06-28T11:38:18.469Z,28.84
2018-06-28T11:39:18.569Z,28.90
2018-06-28T11:40:18.662Z,28.68
2018-06-28T11:41:18.765Z,28.44
2018-06-28T11:42:18.863Z,28.21
2018-06-28T11:43:18.976Z,28.13
2018-06-28T11:44:19.076Z,28.21
2018-06-28T11:45:19.195Z,28.33
2018-06-28T11:46:19.324Z,28.46
2018-06-28T11:47:19.406Z,28.32
2018-06-28T11:48:19.499Z,28.21
2018-06-28T11:49:19.605Z,28.29
2018-06-28T11:50:19.700Z,28.44
2018-06-28T11:51:19.813Z,28.50
2018-06-28T11:52:19.975Z,28.65
2018-06-28T11:53:20.015Z,28.68
2018-06-28T11:54:20.131Z,28.87
2018-06-28T11:55:20.226Z,28.63
2018-06-28T11:56:20.325Z,28.73
2018-06-28T11:57:20.426Z,28.73
2018-06-28T11:58:20.538Z,28.90
2018-06-28T11:59:20.631Z,28.51
2018-06-28T12:00:20.733Z,28.60
2018-06-28T12:01:20.824Z,28.58
2018-06-28T12:02:20.930Z,28.73
2018-06-28T12:03:21.035Z,28.84
2018-06-28T12:04:21.135Z,28.23
2018-06-28T12:05:21.262Z,28.33
2018-06-28T12:06:21.350Z,28.16
2018-06-28T12:07:21.448Z,28.26
2018-06-28T12:08:21.557Z,28.26
2018-06-28T12:09:21.647Z,27.85
2018-06-28T12:10:21.745Z,27.64
2018-06-28T12:11:21.847Z,28.04
2018-06-28T12:12:21.938Z,28.09
2018-06-28T12:13:22.029Z,28.14
2018-06-28T12:14:22.139Z,28.10
2018-06-28T12:15:22.245Z,27.91
2018-06-28T12:16:22.341Z,27.71
2018-06-28T12:17:22.443Z,27.47
2018-06-28T12:18:22.555Z,27.67
2018-06-28T12:19:22.654Z,27.74
2018-06-28T12:20:22.750Z,27.66
2018-06-28T12:21:22.849Z,27.61
2018-06-28T12:22:23.019Z,27.94
2018-06-28T12:23:23.078Z,28.19
2018-06-28T12:24:23.174Z,28.35
2018-06-28T12:25:23.274Z,28.23
2018-06-28T12:26:23.372Z,28.26
2018-06-28T12:27:23.472Z,28.36
2018-06-28T12:28:23.572Z,28.46
2018-06-28T12:29:23.675Z,28.56
2018-06-28T12:30:23.782Z,28.32
2018-06-28T12:31:23.882Z,28.25
2018-06-28T12:32:23.994Z,28.29
2018-06-28T12:33:24.100Z,28.35
2018-06-28T12:34:24.198Z,28.32
2018-06-28T12:35:24.294Z,28.17
2018-06-28T12:36:24.426Z,28.22
2018-06-28T12:37:24.534Z,28.19
2018-06-28T12:38:24.677Z,28.09
2018-06-28T12:39:24.793Z,28.33
2018-06-28T12:40:24.890Z,28.50
2018-06-28T12:41:24.994Z,28.81
2018-06-28T12:42:25.089Z,29.03
2018-06-28T12:43:25.187Z,29.04
2018-06-28T12:44:25.308Z,29.04
2018-06-28T12:45:25.397Z,29.15
2018-06-28T12:46:25.523Z,28.90
2018-06-28T12:47:25.609Z,28.88
2018-06-28T12:48:25.702Z,28.78
2018-06-28T12:49:25.814Z,29.04
2018-06-28T12:50:25.925Z,29.37
2018-06-28T12:51:26.037Z,29.22
2018-06-28T12:52:26.148Z,29.38
2018-06-28T12:53:26.259Z,29.11